Time;durP1;ratioP1;P1;durP2;ratioP2;P2;SDS_P1;SDS_P2;PMS_P1;PMS_P2;Temp;Humidity;BMP_temperature;BMP_pressure;BME280_temperature;BME280_humidity;BME280_pressure;Samples;Min_cycle;Max_cycle;Signal;HPM_P1;HPM_P2
2022/12/14 00:00:31;;;;;;;45.13;23.05;;;-3.10;99.90;;;;;;5092347;28;20056;-63
2022/12/14 00:02:56;;;;;;;47.97;24.17;;;-3.50;99.90;;;;;;5108661;28;20047;-64
2022/12/14 00:05:22;;;;;;;41.00;23.23;;;-3.50;99.90;;;;;;5112135;28;20039;-63
2022/12/14 00:07:48;;;;;;;46.78;22.88;;;-3.60;99.90;;;;;;5108894;28;20044;-64
2022/12/14 00:10:13;;;;;;;45.03;22.95;;;-3.60;99.90;;;;;;5111545;28;20122;-64
2022/12/14 00:12:39;;;;;;;43.78;22.85;;;-3.60;99.90;;;;;;5109256;28;20039;-64
2022/12/14 00:15:05;;;;;;;40.60;21.85;;;-3.60;99.90;;;;;;5112611;28;20539;-63
2022/12/14 00:17:31;;;;;;;44.92;23.50;;;-3.60;99.90;;;;;;5109401;28;20048;-62
2022/12/14 00:19:56;;;;;;;44.78;21.95;;;-3.60;99.90;;;;;;5110362;28;20105;-64
2022/12/14 00:22:22;;;;;;;44.40;24.45;;;-3.60;99.90;;;;;;5110984;28;20065;-62
2022/12/14 00:24:48;;;;;;;44.88;22.60;;;-3.60;99.90;;;;;;5109176;28;20066;-64
2022/12/14 00:27:13;;;;;;;45.95;22.42;;;-3.60;99.90;;;;;;5112762;28;20411;-65
2022/12/14 00:29:39;;;;;;;44.85;23.02;;;-3.60;99.90;;;;;;5109110;28;20505;-64
2022/12/14 00:32:05;;;;;;;46.50;22.75;;;-3.60;99.90;;;;;;5111569;28;20042;-63
2022/12/14 00:34:31;;;;;;;45.85;21.95;;;-3.60;99.90;;;;;;5113141;28;20051;-65
2022/12/14 00:36:57;;;;;;;50.00;23.25;;;-3.60;99.90;;;;;;5095606;28;20043;-63
2022/12/14 00:39:23;;;;;;;43.13;22.90;;;-3.60;99.90;;;;;;5116028;28;20065;-63
2022/12/14 00:41:48;;;;;;;46.53;22.90;;;-3.60;99.90;;;;;;5095168;28;20103;-63
2022/12/14 00:44:14;;;;;;;44.88;22.50;;;-3.60;99.90;;;;;;5116056;28;20125;-64
2022/12/14 00:46:40;;;;;;;43.83;21.98;;;-3.60;99.90;;;;;;5112786;28;20051;-63
2022/12/14 00:49:05;;;;;;;44.70;22.08;;;-3.60;99.90;;;;;;5115977;28;20066;-64
2022/12/14 00:51:31;;;;;;;48.17;22.67;;;-3.60;99.90;;;;;;5113207;28;20047;-63
2022/12/14 00:53:57;;;;;;;39.00;19.80;;;-2.80;99.90;;;;;;5114930;28;20048;-63
2022/12/14 00:56:22;;;;;;;39.25;19.83;;;-3.70;99.90;;;;;;5115290;28;20052;-64
2022/12/14 00:58:52;;;;;;;40.10;21.38;;;-3.70;99.90;;;;;;5113058;28;20063;-64
2022/12/14 01:01:19;;;;;;;39.88;20.67;;;-3.70;99.90;;;;;;5081643;28;20051;-64
2022/12/14 01:03:45;;;;;;;40.92;21.17;;;-3.70;99.90;;;;;;5111663;28;20048;-64
2022/12/14 01:06:19;;;;;;;39.42;19.10;;;-3.70;99.90;;;;;;5115332;28;20050;-63
2022/12/14 01:08:45;;;;;;;40.90;19.77;;;-3.70;99.90;;;;;;5113238;28;20492;-64
2022/12/14 01:11:12;;;;;;;41.85;20.65;;;-3.70;99.90;;;;;;5114887;28;20058;-62
2022/12/14 01:13:39;;;;;;;37.67;19.30;;;-2.70;99.90;;;;;;5096388;28;20047;-62
2022/12/14 01:16:12;;;;;;;37.28;19.90;;;-3.80;99.90;;;;;;5111908;28;20047;-63
2022/12/14 01:18:41;;;;;;;39.25;19.20;;;-3.80;99.90;;;;;;5114746;28;21183;-63
2022/12/14 01:21:15;;;;;;;35.55;19.00;;;-3.80;99.90;;;;;;5093418;28;20071;-64
2022/12/14 01:23:42;;;;;;;37.42;18.90;;;-3.90;99.90;;;;;;5113844;28;20044;-64
2022/12/14 01:26:09;;;;;;;38.83;19.52;;;-3.90;99.90;;;;;;5111941;28;20068;-63
2022/12/14 01:28:35;;;;;;;34.90;17.63;;;-3.90;99.90;;;;;;5113169;28;20051;-63
2022/12/14 01:31:32;;;;;;;39.13;18.80;;;-4.00;99.90;;;;;;5115222;28;20130;-65
2022/12/14 01:33:58;;;;;;;;;;;-4.00;99.90;;;;;;5078290;28;20067;-63
2022/12/14 01:36:29;;;;;;;36.47;18.67;;;-4.00;99.90;;;;;;5113291;28;19938;-64
2022/12/14 01:38:58;;;;;;;38.70;18.20;;;-4.10;99.90;;;;;;5094576;28;20124;-63
2022/12/14 01:41:30;;;;;;;38.25;18.40;;;-4.10;99.90;;;;;;5112737;28;20032;-63
2022/12/14 01:43:58;;;;;;;36.92;18.02;;;-4.10;99.90;;;;;;5114090;28;20095;-66
2022/12/14 01:47:08;;;;;;;37.72;17.73;;;-4.10;99.90;;;;;;5112281;28;20100;-63
2022/12/14 01:49:38;;;;;;;32.85;17.38;;;-4.20;99.90;;;;;;5114528;28;20107;-63
2022/12/14 01:52:14;;;;;;;37.05;18.40;;;-4.20;99.90;;;;;;5114125;28;20365;-63
2022/12/14 01:54:47;;;;;;;35.97;17.85;;;-4.20;99.90;;;;;;5111928;28;20047;-64
2022/12/14 01:57:16;;;;;;;35.40;17.42;;;-4.20;99.90;;;;;;5114115;28;20043;-63
2022/12/14 01:59:44;;;;;;;36.10;17.35;;;-4.30;99.90;;;;;;5112053;28;20836;-64
2022/12/14 02:02:12;;;;;;;44.17;19.55;;;-4.30;99.90;;;;;;5114320;28;20055;-64
2022/12/14 02:04:45;;;;;;;36.97;18.20;;;-4.30;99.90;;;;;;5112249;28;20453;-63
2022/12/14 02:07:13;;;;;;;38.60;18.92;;;-4.40;99.90;;;;;;5111776;28;20043;-63
2022/12/14 02:09:42;;;;;;;42.42;18.23;;;-4.30;99.90;;;;;;5114015;28;20075;-64
2022/12/14 02:12:17;;;;;;;38.65;18.38;;;-4.30;99.90;;;;;;5110739;28;20036;-64
2022/12/14 02:14:44;;;;;;;41.17;19.85;;;-4.40;99.90;;;;;;5113964;28;20047;-64
2022/12/14 02:17:12;;;;;;;34.65;18.45;;;-4.40;99.90;;;;;;5110630;28;20054;-63
2022/12/14 02:19:38;;;;;;;37.20;18.83;;;-4.40;99.90;;;;;;5112563;28;20564;-63
2022/12/14 02:22:28;;;;;;;36.13;19.02;;;-4.40;99.90;;;;;;5112060;28;20052;-63
2022/12/14 02:25:21;;;;;;;36.25;18.83;;;-4.50;99.90;;;;;;5109205;28;20035;-63
2022/12/14 02:28:21;;;;;;;37.92;18.52;;;-4.40;99.90;;;;;;5093503;28;20066;-65
2022/12/14 02:31:45;;;;;;;35.97;19.55;;;-4.50;99.90;;;;;;5112092;28;20051;-64
2022/12/14 02:34:34;;;;;;;36.47;17.98;;;-4.50;99.90;;;;;;5091034;28;20047;-63
2022/12/14 02:37:15;;;;;;;39.65;18.75;;;-4.50;99.90;;;;;;5110893;28;20050;-63
2022/12/14 02:39:58;;;;;;;32.88;18.40;;;-4.60;99.90;;;;;;5113636;28;20175;-63
2022/12/14 02:42:55;;;;;;;38.15;18.95;;;-4.60;99.90;;;;;;5108687;28;20040;-64
2022/12/14 02:45:44;;;;;;;36.80;19.13;;;-4.60;99.90;;;;;;5107632;28;20166;-64
2022/12/14 02:48:20;;;;;;;33.85;17.77;;;-4.60;99.90;;;;;;5095066;28;20085;-63
2022/12/14 02:51:21;;;;;;;37.40;17.83;;;-4.70;99.90;;;;;;5110035;28;20180;-64
2022/12/14 02:54:11;;;;;;;36.53;18.45;;;-4.70;99.90;;;;;;5111327;28;20051;-62
2022/12/14 02:56:47;;;;;;;37.97;18.42;;;-4.70;99.90;;;;;;5111475;28;20043;-63
2022/12/14 02:59:14;;;;;;;;;;;-4.70;99.90;;;;;;5090544;28;20058;-64
2022/12/14 03:01:41;;;;;;;40.83;18.48;;;-4.80;99.90;;;;;;5111781;28;19972;-64
2022/12/14 03:04:07;;;;;;;37.90;19.05;;;-3.00;99.90;;;;;;5109816;28;20043;-64
2022/12/14 03:06:32;;;;;;;42.38;19.73;;;-4.80;99.90;;;;;;5093221;28;20043;-64
2022/12/14 03:09:11;;;;;;;40.63;18.83;;;-4.90;99.90;;;;;;5092091;28;20044;-65
2022/12/14 03:11:50;;;;;;;35.35;18.38;;;-4.80;99.90;;;;;;5110345;28;20051;-63
2022/12/14 03:14:26;;;;;;;38.70;19.67;;;-4.90;99.90;;;;;;5112573;28;20051;-65
2022/12/14 03:16:54;;;;;;;37.28;17.55;;;-4.90;99.90;;;;;;5091232;28;20501;-65
2022/12/14 03:19:29;;;;;;;38.50;18.38;;;-4.90;99.90;;;;;;5112272;28;20113;-65
2022/12/14 03:21:58;;;;;;;35.40;17.98;;;-4.90;99.90;;;;;;5111336;28;20083;-64
2022/12/14 03:24:35;;;;;;;38.65;17.83;;;-4.90;99.90;;;;;;5092259;28;20076;-65
2022/12/14 03:27:06;;;;;;;33.78;17.13;;;-5.00;99.90;;;;;;5112011;28;20084;-65
2022/12/14 03:29:41;;;;;;;35.13;17.48;;;-5.00;99.90;;;;;;5109329;28;20035;-64
2022/12/14 03:32:18;;;;;;;36.95;18.63;;;-5.00;99.90;;;;;;5112857;28;20055;-63
2022/12/14 03:35:31;;;;;;;39.30;18.55;;;-5.00;99.90;;;;;;5112066;28;20050;-64
2022/12/14 03:38:17;;;;;;;35.70;17.30;;;-5.10;99.90;;;;;;5063512;28;20553;-64
2022/12/14 03:40:55;;;;;;;33.90;17.35;;;-5.10;99.90;;;;;;5112718;28;21119;-64
2022/12/14 03:44:06;;;;;;;33.60;17.25;;;-5.10;99.90;;;;;;5111847;28;20131;-64
2022/12/14 03:46:34;;;;;;;33.35;17.05;;;-5.10;99.90;;;;;;5089965;28;20044;-64
2022/12/14 03:49:19;;;;;;;35.58;18.35;;;-5.20;99.90;;;;;;5094733;28;20043;-65
2022/12/14 03:51:57;;;;;;;34.65;16.63;;;-5.20;99.90;;;;;;5109767;28;20035;-62
2022/12/14 03:54:43;;;;;;;36.42;17.75;;;-5.20;99.90;;;;;;5089833;28;20122;-65
2022/12/14 03:57:49;;;;;;;37.03;18.05;;;-5.20;99.90;;;;;;5110489;28;20098;-65
2022/12/14 04:00:21;;;;;;;34.35;16.55;;;-5.30;99.90;;;;;;5079286;28;20060;-65
2022/12/14 04:02:57;;;;;;;39.72;17.25;;;-5.30;99.90;;;;;;5110843;28;20534;-66
2022/12/14 04:05:44;;;;;;;33.83;17.15;;;-5.30;99.90;;;;;;5111454;28;20039;-63
2022/12/14 04:08:48;;;;;;;35.83;17.38;;;-5.40;99.90;;;;;;5087575;28;20069;-66
2022/12/14 04:20:08;;;;;;;33.60;17.95;;;-5.50;99.90;;;;;;5115082;28;20510;-64
2022/12/14 04:22:39;;;;;;;36.90;16.63;;;-5.50;99.90;;;;;;5115696;28;20112;-63
2022/12/14 04:31:12;;;;;;;34.80;15.73;;;-5.50;99.90;;;;;;5115166;28;20118;-64
2022/12/14 04:33:45;;;;;;;32.13;16.17;;;-5.60;99.90;;;;;;5112471;28;21009;-63
2022/12/14 04:36:33;;;;;;;36.40;17.05;;;-5.60;99.90;;;;;;5097281;28;20454;-64
2022/12/14 04:39:15;;;;;;;31.52;16.25;;;-5.60;99.90;;;;;;5113861;28;20055;-63
2022/12/14 04:41:45;;;;;;;32.80;16.60;;;-5.60;99.90;;;;;;5112816;28;20112;-64
2022/12/14 04:44:27;;;;;;;34.53;17.17;;;-5.60;99.90;;;;;;5088430;28;20031;-64
2022/12/14 04:46:53;;;;;;;35.97;16.23;;;-5.60;99.90;;;;;;5113139;28;20036;-64
2022/12/14 04:49:23;;;;;;;32.58;15.90;;;-5.70;99.90;;;;;;5114789;28;20531;-63
2022/12/14 04:52:05;;;;;;;31.60;16.52;;;-5.70;99.90;;;;;;5114193;28;20491;-64
2022/12/14 04:54:55;;;;;;;34.15;15.95;;;-5.70;99.90;;;;;;5113702;28;20043;-63
2022/12/14 04:57:35;;;;;;;34.08;15.63;;;-5.70;99.90;;;;;;5115116;28;20044;-64
2022/12/14 05:00:02;;;;;;;31.83;15.65;;;-5.70;99.90;;;;;;5112240;28;20075;-64
2022/12/14 05:02:49;;;;;;;34.15;15.45;;;-5.80;99.90;;;;;;5114449;28;20039;-65
2022/12/14 05:05:52;;;;;;;35.17;16.67;;;-5.80;99.90;;;;;;5115789;28;20047;-65
2022/12/14 05:08:26;;;;;;;32.45;15.45;;;-5.80;99.90;;;;;;5111545;28;20040;-64
2022/12/14 05:11:17;;;;;;;32.15;15.75;;;-5.80;99.90;;;;;;5114594;28;20051;-64
2022/12/14 05:13:47;;;;;;;33.88;16.50;;;-5.80;99.90;;;;;;5115213;28;20166;-65
2022/12/14 05:16:16;;;;;;;34.63;15.73;;;-5.80;99.90;;;;;;5110232;28;20044;-64
2022/12/14 05:18:43;;;;;;;31.95;16.00;;;-5.80;99.90;;;;;;5114562;28;20055;-63
2022/12/14 05:21:45;;;;;;;34.00;16.13;;;-5.80;99.90;;;;;;5089977;28;20040;-64
2022/12/14 05:24:00;;;;;;;34.88;16.20;;;-5.90;99.90;;;;;;5113842;28;20525;-66
2022/12/14 05:26:26;;;;;;;33.47;15.82;;;-5.90;99.90;;;;;;5092480;28;20052;-62
2022/12/14 05:28:52;;;;;;;33.83;15.13;;;-5.50;99.90;;;;;;5112625;28;20040;-64
2022/12/14 05:31:18;;;;;;;37.50;16.35;;;-5.90;99.90;;;;;;5114394;28;20039;-64
2022/12/14 05:33:44;;;;;;;34.88;15.75;;;-5.90;99.90;;;;;;5112238;28;20089;-64
2022/12/14 05:36:09;;;;;;;31.52;15.25;;;-6.00;99.90;;;;;;5097211;28;20044;-64
2022/12/14 05:38:35;;;;;;;33.95;15.30;;;-6.00;99.90;;;;;;5113099;28;20075;-62
2022/12/14 05:41:01;;;;;;;32.08;15.02;;;-6.00;99.90;;;;;;5113567;28;20046;-63
2022/12/14 05:43:27;;;;;;;34.08;15.30;;;-6.00;99.90;;;;;;5113599;28;20040;-63
2022/12/14 05:46:00;;;;;;;34.53;15.63;;;-6.00;99.90;;;;;;5112148;28;20072;-63
2022/12/14 05:48:26;;;;;;;30.63;14.07;;;-6.00;99.90;;;;;;5095344;28;20047;-63
2022/12/14 05:50:52;;;;;;;32.97;15.15;;;-6.10;99.90;;;;;;5087616;28;20433;-62
2022/12/14 05:53:18;;;;;;;33.17;16.30;;;-5.60;99.90;;;;;;5113595;28;20058;-65
2022/12/14 05:55:50;;;;;;;32.85;15.50;;;-6.10;99.90;;;;;;5093781;28;20494;-64
2022/12/14 05:58:16;;;;;;;31.00;14.95;;;-6.10;99.90;;;;;;5112628;28;20051;-65
2022/12/14 06:00:42;;;;;;;32.00;15.90;;;-6.10;99.90;;;;;;5112534;28;20093;-63
2022/12/14 06:03:08;;;;;;;32.45;15.18;;;-6.10;99.90;;;;;;5110596;28;20292;-65
2022/12/14 06:05:34;;;;;;;30.60;14.80;;;-6.10;99.90;;;;;;5113522;28;20071;-65
2022/12/14 06:08:00;;;;;;;31.02;14.77;;;-6.20;99.90;;;;;;5111399;28;20070;-64
2022/12/14 06:10:26;;;;;;;30.48;15.50;;;-6.20;99.90;;;;;;5095413;28;20047;-66
2022/12/14 06:12:52;;;;;;;31.73;15.13;;;-6.20;99.90;;;;;;5111431;28;20047;-64
2022/12/14 06:15:17;;;;;;;34.65;15.93;;;-6.20;99.90;;;;;;5095445;28;20040;-64
2022/12/14 06:17:44;;;;;;;34.03;15.45;;;-6.20;99.90;;;;;;5093975;28;20058;-63
2022/12/14 06:20:11;;;;;;;35.28;16.67;;;-6.20;99.90;;;;;;5110922;28;20032;-64
2022/12/14 06:22:37;;;;;;;29.52;15.43;;;-5.20;99.90;;;;;;5112521;28;20085;-65
2022/12/14 06:25:03;;;;;;;32.47;15.25;;;-6.20;99.90;;;;;;5111408;28;20051;-66
2022/12/14 06:27:29;;;;;;;30.83;14.50;;;-6.30;99.90;;;;;;5113785;28;20065;-64
2022/12/14 06:29:54;;;;;;;32.42;16.13;;;-6.30;99.90;;;;;;5108867;28;20036;-64
2022/12/14 06:32:20;;;;;;;35.78;17.70;;;-7.00;99.90;;;;;;5095105;28;20028;-64
2022/12/14 06:34:46;;;;;;;35.05;16.70;;;-6.30;99.90;;;;;;5113218;28;20399;-64
2022/12/14 06:37:12;;;;;;;34.15;15.55;;;-6.30;99.90;;;;;;5111350;28;20055;-65
2022/12/14 06:39:38;;;;;;;36.38;17.80;;;-6.30;99.90;;;;;;5113530;28;20035;-65
2022/12/14 06:42:04;;;;;;;39.58;18.10;;;-6.40;99.90;;;;;;5092650;28;20039;-65
2022/12/14 06:44:30;;;;;;;38.08;18.17;;;-5.90;99.90;;;;;;5113116;28;20044;-65
2022/12/14 06:46:56;;;;;;;31.67;16.10;;;-6.40;99.90;;;;;;5109738;28;20044;-64
2022/12/14 06:49:22;;;;;;;30.08;15.05;;;-6.40;99.90;;;;;;5113421;28;20047;-64
2022/12/14 06:51:48;;;;;;;31.95;16.15;;;-6.40;99.90;;;;;;5111337;28;20044;-64
2022/12/14 06:54:15;;;;;;;37.45;16.33;;;-6.40;99.90;;;;;;5111720;28;20036;-65
2022/12/14 06:56:43;;;;;;;32.85;16.10;;;-6.40;99.90;;;;;;5112781;28;20579;-65
2022/12/14 06:59:09;;;;;;;32.67;15.38;;;-6.30;99.90;;;;;;5110565;28;20226;-65
2022/12/14 07:01:36;;;;;;;29.77;15.02;;;-6.30;99.90;;;;;;5112887;28;20039;-65
2022/12/14 07:04:02;;;;;;;30.80;14.73;;;-6.50;99.90;;;;;;5110031;28;20063;-64
2022/12/14 07:06:35;;;;;;;31.80;15.07;;;-6.50;99.90;;;;;;5112284;28;20099;-64
2022/12/14 07:09:03;;;;;;;31.42;14.95;;;-6.60;99.90;;;;;;5094327;28;20050;-68
2022/12/14 07:11:29;;;;;;;32.15;15.85;;;-6.50;99.90;;;;;;5111002;28;20116;-62
2022/12/14 07:13:55;;;;;;;39.05;20.42;;;-6.50;99.90;;;;;;5113571;28;20043;-65
2022/12/14 07:16:24;;;;;;;46.75;24.17;;;-6.50;99.90;;;;;;5089486;28;20046;-64
2022/12/14 07:18:50;;;;;;;36.63;17.42;;;-6.60;99.90;;;;;;5111371;28;20039;-64
2022/12/14 07:21:19;;;;;;;34.53;16.50;;;-6.60;99.90;;;;;;5104640;28;20391;-64
2022/12/14 07:23:46;;;;;;;41.00;16.30;;;-6.60;99.90;;;;;;5109923;28;20093;-65
2022/12/14 07:26:13;;;;;;;35.00;15.35;;;-6.60;99.90;;;;;;5108421;28;20087;-65
2022/12/14 07:28:39;;;;;;;31.10;15.13;;;-6.60;99.90;;;;;;5105901;28;20560;-65
2022/12/14 07:31:10;;;;;;;31.67;14.93;;;-6.60;99.90;;;;;;5111587;28;20065;-65
2022/12/14 07:33:37;;;;;;;32.85;15.75;;;-6.60;99.90;;;;;;5088151;28;20107;-65
2022/12/14 07:36:11;;;;;;;34.30;15.15;;;-6.70;99.90;;;;;;5091747;28;20438;-66
2022/12/14 07:38:39;;;;;;;36.38;15.98;;;-6.60;99.90;;;;;;5108098;28;20047;-64
2022/12/14 07:41:14;;;;;;;33.63;16.75;;;-6.70;99.90;;;;;;5109178;28;20299;-66
2022/12/14 07:43:40;;;;;;;34.40;15.98;;;-6.70;99.90;;;;;;5093535;28;20108;-64
2022/12/14 07:46:09;;;;;;;34.45;16.77;;;-6.70;99.90;;;;;;5108090;28;20061;-64
2022/12/14 07:48:36;;;;;;;33.42;16.10;;;-6.70;99.90;;;;;;5111210;28;20115;-64
2022/12/14 07:51:07;;;;;;;37.40;16.10;;;-5.90;99.90;;;;;;5106774;28;20537;-64
2022/12/14 07:53:33;;;;;;;34.90;15.68;;;-6.70;99.90;;;;;;5110358;28;20106;-64
2022/12/14 07:56:04;;;;;;;41.88;16.45;;;-6.70;99.90;;;;;;5109260;28;20081;-66
2022/12/14 07:58:31;;;;;;;36.97;15.80;;;-6.70;99.90;;;;;;5109354;28;20429;-64
2022/12/14 08:01:17;;;;;;;36.25;17.13;;;-6.70;99.90;;;;;;5092596;28;20059;-64
2022/12/14 08:03:47;;;;;;;36.35;16.10;;;-6.70;99.90;;;;;;5107708;28;20069;-63
2022/12/14 08:06:13;;;;;;;34.97;17.10;;;-6.60;99.90;;;;;;5112129;28;20051;-65
2022/12/14 08:08:40;;;;;;;36.17;16.08;;;-6.80;99.90;;;;;;5108266;28;20039;-64
2022/12/14 08:11:07;;;;;;;32.60;15.30;;;-6.70;99.90;;;;;;5110325;28;20062;-63
2022/12/14 08:13:33;;;;;;;34.25;16.38;;;-6.70;99.90;;;;;;5111338;28;20043;-64
2022/12/14 08:16:08;;;;;;;33.85;15.68;;;-6.70;99.90;;;;;;5105915;28;20077;-64
2022/12/14 08:18:34;;;;;;;33.47;15.90;;;-6.80;99.90;;;;;;5110357;28;20050;-65
2022/12/14 08:21:01;;;;;;;32.17;16.15;;;-6.80;99.90;;;;;;5089712;28;20062;-64
2022/12/14 08:23:27;;;;;;;36.13;15.20;;;-6.80;99.90;;;;;;5111753;28;20055;-64
2022/12/14 08:25:57;;;;;;;33.50;15.70;;;-6.40;99.90;;;;;;5109602;28;20036;-64
2022/12/14 08:28:24;;;;;;;33.35;15.20;;;-6.80;99.90;;;;;;5109051;28;20055;-65
2022/12/14 08:30:50;;;;;;;35.47;16.75;;;-6.70;99.90;;;;;;5111829;28;20051;-65
2022/12/14 08:33:17;;;;;;;34.97;16.35;;;-6.70;99.90;;;;;;5107075;28;20040;-65
2022/12/14 08:35:43;;;;;;;32.90;15.85;;;-6.60;99.90;;;;;;5092925;28;20051;-63
2022/12/14 08:38:09;;;;;;;41.28;17.77;;;-6.60;99.90;;;;;;5106691;28;20062;-63
2022/12/14 08:40:35;;;;;;;40.20;17.00;;;-6.50;99.90;;;;;;5087024;28;20347;-64
2022/12/14 08:43:01;;;;;;;41.03;18.75;;;-6.50;99.90;;;;;;5109378;28;20040;-65
2022/12/14 08:45:26;;;;;;;46.08;18.73;;;-6.50;99.90;;;;;;5109607;28;20040;-65
2022/12/14 08:47:55;;;;;;;35.97;16.83;;;-6.90;99.90;;;;;;5091883;28;20063;-62
2022/12/14 08:50:21;;;;;;;37.42;16.75;;;-6.40;99.90;;;;;;5108665;28;20043;-64
2022/12/14 08:52:47;;;;;;;37.75;17.15;;;-6.20;99.90;;;;;;5082703;28;20055;-63
2022/12/14 08:55:13;;;;;;;39.90;17.70;;;-6.30;99.90;;;;;;5086822;28;20052;-64
2022/12/14 08:57:39;;;;;;;40.03;18.30;;;-6.20;99.90;;;;;;5096829;28;20158;-65
2022/12/14 09:00:07;;;;;;;37.08;16.77;;;-6.20;99.90;;;;;;5111764;28;20051;-65
2022/12/14 09:02:33;;;;;;;38.05;16.70;;;-6.10;99.90;;;;;;5113922;28;20075;-65
2022/12/14 09:04:59;;;;;;;36.05;16.52;;;-5.90;99.90;;;;;;5114637;28;20044;-66
2022/12/14 09:07:24;;;;;;;42.53;17.60;;;-5.80;99.90;;;;;;5088431;28;20508;-65
2022/12/14 09:09:50;;;;;;;43.45;17.25;;;-5.70;99.90;;;;;;5097525;28;20059;-64
2022/12/14 09:12:15;;;;;;;41.80;17.50;;;-5.70;99.90;;;;;;5111203;28;20051;-64
2022/12/14 09:14:45;;;;;;;38.00;16.52;;;-5.70;99.90;;;;;;5115460;28;20083;-64
2022/12/14 09:17:11;;;;;;;41.08;17.08;;;-5.50;99.90;;;;;;5111882;28;20047;-62
2022/12/14 09:19:37;;;;;;;35.97;16.20;;;-5.20;99.90;;;;;;5113609;28;20130;-64
2022/12/14 09:22:03;;;;;;;33.80;16.40;;;-4.90;99.90;;;;;;5111940;28;20515;-64
2022/12/14 09:24:29;;;;;;;41.47;18.40;;;-4.60;99.90;;;;;;5108581;28;20079;-64
2022/12/14 09:26:58;;;;;;;33.97;17.08;;;-4.40;99.90;;;;;;5113632;28;20077;-63
2022/12/14 09:29:24;;;;;;;35.05;16.50;;;-4.30;99.90;;;;;;5111345;28;20050;-63
2022/12/14 09:31:50;;;;;;;38.80;17.45;;;-4.20;99.90;;;;;;5095016;28;20107;-64
2022/12/14 09:34:15;;;;;;;37.17;17.38;;;-3.90;99.90;;;;;;5093537;28;20046;-63
2022/12/14 09:36:41;;;;;;;34.03;16.38;;;-3.40;99.90;;;;;;5111034;28;20048;-62
2022/12/14 09:39:07;;;;;;;38.88;17.20;;;-3.00;99.90;;;;;;5094482;28;20052;-65
2022/12/14 09:41:32;;;;;;;38.53;17.05;;;-2.70;99.90;;;;;;5108891;28;20043;-64
2022/12/14 09:44:37;;;;;;;36.88;16.80;;;-2.20;99.90;;;;;;5113870;28;20278;-63
2022/12/14 09:47:31;;;;;;;39.72;17.77;;;-1.30;99.90;;;;;;5060397;28;20059;-63
2022/12/14 09:50:09;;;;;;;34.40;17.33;;;-0.40;99.90;;;;;;5075632;28;20060;-62
2022/12/14 09:53:04;;;;;;;36.05;17.88;;;0.20;99.90;;;;;;5112628;28;20056;-63
2022/12/14 09:55:40;;;;;;;35.90;17.40;;;0.80;99.90;;;;;;5108386;28;20055;-64
2022/12/14 09:58:12;;;;;;;;;;;1.20;99.90;;;;;;5112825;28;20781;-63
2022/12/14 10:00:46;;;;;;;33.65;16.60;;;1.90;99.90;;;;;;5112706;28;20026;-62
2022/12/14 10:03:14;;;;;;;32.65;17.00;;;1.90;99.90;;;;;;5109613;28;20032;-63
2022/12/14 10:05:59;;;;;;;32.92;18.23;;;2.30;99.90;;;;;;5112038;28;20299;-62
2022/12/14 10:08:38;;;;;;;30.77;17.00;;;2.80;99.90;;;;;;5110195;28;20699;-62
2022/12/14 10:11:33;;;;;;;34.15;17.35;;;3.40;99.90;;;;;;5110648;28;20108;-62
2022/12/14 10:14:17;;;;;;;31.60;18.25;;;3.60;99.90;;;;;;5113322;28;20056;-62
2022/12/14 10:16:58;;;;;;;31.50;17.67;;;3.80;99.90;;;;;;5106856;28;20043;-64
2022/12/14 10:19:40;;;;;;;32.55;17.35;;;3.90;99.90;;;;;;5094731;28;20055;-63
2022/12/14 10:22:17;;;;;;;30.67;17.10;;;4.00;99.90;;;;;;5113016;28;20147;-63
2022/12/14 10:24:50;;;;;;;31.98;17.52;;;3.90;99.90;;;;;;5110488;28;20048;-64
2022/12/14 10:27:25;;;;;;;33.40;18.27;;;3.70;99.90;;;;;;5113277;28;20079;-62
2022/12/14 10:30:15;;;;;;;31.70;17.53;;;3.70;99.90;;;;;;5110996;28;20069;-63
2022/12/14 10:32:48;;;;;;;28.40;16.67;;;4.50;99.90;;;;;;5097610;28;20070;-63
2022/12/14 10:35:24;;;;;;;29.67;17.67;;;3.60;99.90;;;;;;5112335;28;20053;-62
2022/12/14 10:38:01;;;;;;;29.30;16.40;;;3.20;99.90;;;;;;5109815;28;20043;-63
2022/12/14 10:40:32;;;;;;;29.40;16.20;;;3.70;99.90;;;;;;5112295;28;20815;-63
2022/12/14 10:43:06;;;;;;;31.55;17.20;;;2.40;99.90;;;;;;5110977;28;20521;-62
2022/12/14 10:45:47;;;;;;;30.48;16.60;;;2.20;99.90;;;;;;5107678;28;20049;-64
2022/12/14 10:48:29;;;;;;;31.80;16.60;;;1.70;99.90;;;;;;5093693;28;20040;-64
2022/12/14 10:50:58;;;;;;;28.70;15.43;;;1.20;99.90;;;;;;5109576;28;20101;-62
2022/12/14 10:53:38;;;;;;;26.67;14.98;;;0.80;99.90;;;;;;5090148;28;20107;-61
2022/12/14 10:56:10;;;;;;;28.58;15.00;;;0.40;99.90;;;;;;5109232;28;20095;-62
2022/12/14 10:58:35;;;;;;;30.85;16.00;;;0.10;99.90;;;;;;5107700;28;20050;-63
2022/12/14 11:01:01;;;;;;;31.95;14.98;;;0.00;99.90;;;;;;5075669;28;20036;-63
2022/12/14 11:03:27;;;;;;;25.75;14.23;;;0.40;99.90;;;;;;5108896;28;20103;-63
2022/12/14 11:06:13;;;;;;;25.58;13.77;;;1.10;99.90;;;;;;5111698;28;20039;-63
2022/12/14 11:08:45;;;;;;;27.20;16.08;;;1.80;99.90;;;;;;5084593;28;20414;-62
2022/12/14 11:11:21;;;;;;;28.30;15.02;;;2.40;99.90;;;;;;5110297;28;20036;-62
2022/12/14 11:14:08;;;;;;;28.30;15.18;;;3.20;99.90;;;;;;5110676;28;20051;-62
2022/12/14 11:16:37;;;;;;;29.10;15.07;;;4.00;99.90;;;;;;5099224;28;20140;-63
2022/12/14 11:19:12;;;;;;;27.48;15.10;;;4.30;99.90;;;;;;5108289;28;20043;-62
2022/12/14 11:21:38;;;;;;;26.67;15.40;;;4.50;99.90;;;;;;5108991;28;20085;-62
2022/12/14 11:24:05;;;;;;;28.50;15.13;;;4.80;99.90;;;;;;5107991;28;20048;-63
2022/12/14 11:26:36;;;;;;;25.55;14.82;;;5.40;99.90;;;;;;5109359;28;20048;-63
2022/12/14 11:29:06;;;;;;;36.08;15.85;;;6.00;99.90;;;;;;5087688;28;20077;-64
2022/12/14 11:31:48;;;;;;;25.63;14.68;;;6.30;98.90;;;;;;5109390;28;20036;-63
2022/12/14 11:34:29;;;;;;;28.38;14.98;;;6.00;95.80;;;;;;5107687;28;20048;-63
2022/12/14 11:36:54;;;;;;;26.95;14.88;;;5.70;96.60;;;;;;5108044;28;20072;-63
2022/12/14 11:39:23;;;;;;;25.33;14.80;;;5.60;98.30;;;;;;5089349;28;20103;-63
2022/12/14 11:42:00;;;;;;;28.70;16.02;;;5.40;98.30;;;;;;5105706;28;20051;-64
2022/12/14 11:44:36;;;;;;;28.33;15.98;;;5.20;98.10;;;;;;5110813;28;20047;-64
2022/12/14 11:47:01;;;;;;;;;;;5.10;98.70;;;;;;5108270;28;20047;-63
2022/12/14 11:49:39;;;;;;;26.70;16.13;;;5.10;94.80;;;;;;5110652;28;19923;-63
2022/12/14 11:52:04;;;;;;;37.22;21.35;;;4.80;98.20;;;;;;5111294;28;20047;-64
2022/12/14 11:54:31;;;;;;;30.05;17.40;;;4.40;99.80;;;;;;5108543;28;20202;-64
2022/12/14 11:57:03;;;;;;;28.55;16.52;;;3.90;99.90;;;;;;5110426;28;20058;-63
2022/12/14 11:59:55;;;;;;;28.02;15.80;;;3.40;99.90;;;;;;5107890;28;20403;-63
2022/12/14 12:02:29;;;;;;;28.88;16.45;;;3.00;99.90;;;;;;5098336;28;20044;-64
2022/12/14 12:05:14;;;;;;;28.90;16.77;;;2.60;99.90;;;;;;5109725;28;20441;-64
2022/12/14 12:07:50;;;;;;;29.98;15.85;;;2.40;99.90;;;;;;5108281;28;20121;-64
2022/12/14 12:10:40;;;;;;;31.17;16.63;;;2.10;99.90;;;;;;5109339;28;20040;-64
2022/12/14 12:13:17;;;;;;;38.97;18.85;;;1.80;99.90;;;;;;5109532;28;20058;-64
2022/12/14 12:15:49;;;;;;;32.38;16.52;;;1.50;99.90;;;;;;5107394;28;20065;-63
2022/12/14 12:18:27;;;;;;;29.95;15.60;;;1.50;99.90;;;;;;5112279;28;20032;-63
2022/12/14 12:21:11;;;;;;;28.60;15.75;;;1.00;99.90;;;;;;5112363;28;20039;-63
2022/12/14 12:23:55;;;;;;;41.65;16.27;;;0.90;99.90;;;;;;5109785;28;20051;-62
2022/12/14 12:26:41;;;;;;;31.85;14.68;;;0.60;99.90;;;;;;5109047;28;20043;-62
2022/12/14 12:29:26;;;;;;;27.58;13.93;;;0.40;99.90;;;;;;5084826;28;20696;-64
2022/12/14 12:31:57;;;;;;;32.22;15.10;;;0.20;99.90;;;;;;5114801;28;20349;-63
2022/12/14 12:34:52;;;;;;;29.13;15.13;;;0.00;99.90;;;;;;5111483;28;20040;-63
2022/12/14 12:37:48;;;;;;;31.35;14.38;;;0.00;99.90;;;;;;5086002;28;20058;-62
2022/12/14 12:40:25;;;;;;;26.48;15.00;;;-0.10;99.90;;;;;;5109929;28;20078;-62
2022/12/14 12:43:11;;;;;;;31.35;15.10;;;0.00;99.90;;;;;;5092499;28;20559;-62
2022/12/14 12:46:27;;;;;;;35.45;15.60;;;0.30;99.90;;;;;;5113507;28;20066;-63
2022/12/14 12:49:03;;;;;;;30.67;15.15;;;0.00;99.90;;;;;;5098170;28;20060;-63
2022/12/14 12:52:05;;;;;;;31.27;15.15;;;0.10;99.90;;;;;;5093680;28;20048;-63
2022/12/14 12:54:45;;;;;;;28.45;15.18;;;0.30;99.90;;;;;;5050072;28;20067;-63
2022/12/14 12:57:12;;;;;;;27.15;15.52;;;0.60;99.90;;;;;;5113600;28;20050;-63
2022/12/14 12:59:47;;;;;;;29.55;15.38;;;1.00;99.90;;;;;;5110749;28;20148;-63
2022/12/14 13:02:33;;;;;;;26.13;15.23;;;1.30;99.90;;;;;;5096583;28;20051;-62
2022/12/14 13:05:06;;;;;;;26.35;14.45;;;0.40;99.90;;;;;;5114836;28;20126;-62
2022/12/14 13:07:38;;;;;;;33.85;15.77;;;2.00;99.90;;;;;;5086734;28;20118;-63
2022/12/14 13:10:17;;;;;;;29.88;15.30;;;2.20;99.90;;;;;;5114180;28;20040;-63
2022/12/14 13:12:56;;;;;;;27.63;14.25;;;2.70;99.90;;;;;;5110888;28;20036;-64
2022/12/14 13:15:40;;;;;;;29.48;15.52;;;3.10;99.90;;;;;;5113470;28;20101;-63